sensor_id;sensor_type;location;lat;lon;timestamp;temperature;humidity
59146;DHT22;44928;53.074;6.646;2023-05-29T00:00:19;10.60;99.90
59146;DHT22;44928;53.074;6.646;2023-05-29T00:02:46;10.50;99.90
59146;DHT22;44928;53.074;6.646;2023-05-29T00:05:13;10.50;99.90
59146;DHT22;44928;53.074;6.646;2023-05-29T00:07:40;10.50;99.90
59146;DHT22;44928;53.074;6.646;2023-05-29T00:10:07;10.50;99.90
59146;DHT22;44928;53.074;6.646;2023-05-29T00:12:33;10.50;99.90
59146;DHT22;44928;53.074;6.646;2023-05-29T00:14:59;10.50;99.90
59146;DHT22;44928;53.074;6.646;2023-05-29T00:17:25;10.50;99.90
59146;DHT22;44928;53.074;6.646;2023-05-29T00:19:51;10.40;99.90
59146;DHT22;44928;53.074;6.646;2023-05-29T00:22:17;10.40;99.90
59146;DHT22;44928;53.074;6.646;2023-05-29T00:24:42;10.40;99.90
59146;DHT22;44928;53.074;6.646;2023-05-29T00:27:09;10.40;99.90
59146;DHT22;44928;53.074;6.646;2023-05-29T00:29:36;10.40;99.90
59146;DHT22;44928;53.074;6.646;2023-05-29T00:32:04;10.40;99.90
59146;DHT22;44928;53.074;6.646;2023-05-29T00:34:30;10.30;99.90
59146;DHT22;44928;53.074;6.646;2023-05-29T00:36:56;10.30;99.90
59146;DHT22;44928;53.074;6.646;2023-05-29T00:39:22;10.30;99.90
59146;DHT22;44928;53.074;6.646;2023-05-29T00:41:48;10.30;99.90
59146;DHT22;44928;53.074;6.646;2023-05-29T00:44:20;10.20;99.90
59146;DHT22;44928;53.074;6.646;2023-05-29T00:46:48;10.20;99.90
59146;DHT22;44928;53.074;6.646;2023-05-29T00:49:14;10.20;99.90
59146;DHT22;44928;53.074;6.646;2023-05-29T00:51:41;10.20;99.90
59146;DHT22;44928;53.074;6.646;2023-05-29T00:54:07;10.10;99.90
59146;DHT22;44928;53.074;6.646;2023-05-29T00:56:36;10.10;99.90
59146;DHT22;44928;53.074;6.646;2023-05-29T00:59:02;10.10;99.90
59146;DHT22;44928;53.074;6.646;2023-05-29T01:01:29;10.10;99.90
59146;DHT22;44928;53.074;6.646;2023-05-29T01:03:57;10.00;99.90
59146;DHT22;44928;53.074;6.646;2023-05-29T01:06:26;10.00;99.90
59146;DHT22;44928;53.074;6.646;2023-05-29T01:08:52;10.00;99.90
59146;DHT22;44928;53.074;6.646;2023-05-29T01:11:27;9.90;99.90
59146;DHT22;44928;53.074;6.646;2023-05-29T01:13:57;10.00;99.90
59146;DHT22;44928;53.074;6.646;2023-05-29T01:24:48;9.90;99.90
59146;DHT22;44928;53.074;6.646;2023-05-29T01:27:18;9.90;99.90
59146;DHT22;44928;53.074;6.646;2023-05-29T01:29:46;9.90;99.90
59146;DHT22;44928;53.074;6.646;2023-05-29T01:32:12;9.80;99.90
59146;DHT22;44928;53.074;6.646;2023-05-29T01:34:38;9.80;99.90
59146;DHT22;44928;53.074;6.646;2023-05-29T01:37:04;9.80;99.90
59146;DHT22;44928;53.074;6.646;2023-05-29T01:39:31;9.70;99.90
59146;DHT22;44928;53.074;6.646;2023-05-29T01:41:58;9.80;99.90
59146;DHT22;44928;53.074;6.646;2023-05-29T01:44:25;9.70;99.90
59146;DHT22;44928;53.074;6.646;2023-05-29T01:46:52;9.70;99.90
59146;DHT22;44928;53.074;6.646;2023-05-29T01:49:18;9.80;99.90
59146;DHT22;44928;53.074;6.646;2023-05-29T01:51:44;9.80;99.90
59146;DHT22;44928;53.074;6.646;2023-05-29T01:54:10;9.70;99.90
59146;DHT22;44928;53.074;6.646;2023-05-29T01:56:37;9.70;99.90
59146;DHT22;44928;53.074;6.646;2023-05-29T01:59:04;9.70;99.90
59146;DHT22;44928;53.074;6.646;2023-05-29T02:01:31;9.60;99.90
59146;DHT22;44928;53.074;6.646;2023-05-29T02:03:57;9.60;99.90
59146;DHT22;44928;53.074;6.646;2023-05-29T02:06:22;9.50;99.90
59146;DHT22;44928;53.074;6.646;2023-05-29T02:08:48;9.50;99.90
59146;DHT22;44928;53.074;6.646;2023-05-29T02:11:14;9.40;99.90
59146;DHT22;44928;53.074;6.646;2023-05-29T02:13:41;9.40;99.90
59146;DHT22;44928;53.074;6.646;2023-05-29T02:16:07;9.40;99.90
59146;DHT22;44928;53.074;6.646;2023-05-29T02:18:33;9.30;99.90
59146;DHT22;44928;53.074;6.646;2023-05-29T02:21:00;9.20;99.90
59146;DHT22;44928;53.074;6.646;2023-05-29T02:23:26;9.20;99.90
59146;DHT22;44928;53.074;6.646;2023-05-29T02:25:52;9.20;99.90
59146;DHT22;44928;53.074;6.646;2023-05-29T02:28:17;9.10;99.90
59146;DHT22;44928;53.074;6.646;2023-05-29T02:30:43;9.10;99.90
59146;DHT22;44928;53.074;6.646;2023-05-29T02:33:09;9.10;99.90
59146;DHT22;44928;53.074;6.646;2023-05-29T02:35:35;9.10;99.90
59146;DHT22;44928;53.074;6.646;2023-05-29T02:38:00;9.10;99.90
59146;DHT22;44928;53.074;6.646;2023-05-29T02:40:26;9.10;99.90
59146;DHT22;44928;53.074;6.646;2023-05-29T02:42:52;9.10;99.90
59146;DHT22;44928;53.074;6.646;2023-05-29T02:45:18;9.10;99.90
59146;DHT22;44928;53.074;6.646;2023-05-29T02:47:43;9.10;99.90
59146;DHT22;44928;53.074;6.646;2023-05-29T02:50:09;9.00;99.90
59146;DHT22;44928;53.074;6.646;2023-05-29T02:52:35;9.00;99.90
59146;DHT22;44928;53.074;6.646;2023-05-29T02:55:05;9.00;99.90
59146;DHT22;44928;53.074;6.646;2023-05-29T02:57:32;8.90;99.90
59146;DHT22;44928;53.074;6.646;2023-05-29T02:59:58;8.90;99.90
59146;DHT22;44928;53.074;6.646;2023-05-29T03:02:23;8.90;99.90
59146;DHT22;44928;53.074;6.646;2023-05-29T03:04:49;8.90;99.90
59146;DHT22;44928;53.074;6.646;2023-05-29T03:07:16;8.80;99.90
59146;DHT22;44928;53.074;6.646;2023-05-29T03:09:42;8.80;99.90
59146;DHT22;44928;53.074;6.646;2023-05-29T03:12:08;8.80;99.90
59146;DHT22;44928;53.074;6.646;2023-05-29T03:14:33;8.80;99.90
59146;DHT22;44928;53.074;6.646;2023-05-29T03:17:05;8.80;99.90
59146;DHT22;44928;53.074;6.646;2023-05-29T03:19:32;8.80;99.90
59146;DHT22;44928;53.074;6.646;2023-05-29T03:21:58;8.80;99.90
59146;DHT22;44928;53.074;6.646;2023-05-29T03:24:23;8.70;99.90
59146;DHT22;44928;53.074;6.646;2023-05-29T03:26:49;8.70;99.90
59146;DHT22;44928;53.074;6.646;2023-05-29T03:29:16;8.60;99.90
59146;DHT22;44928;53.074;6.646;2023-05-29T03:31:42;8.60;99.90
59146;DHT22;44928;53.074;6.646;2023-05-29T03:34:07;8.60;99.90
59146;DHT22;44928;53.074;6.646;2023-05-29T03:36:33;8.60;99.90
59146;DHT22;44928;53.074;6.646;2023-05-29T03:39:02;8.60;99.90
59146;DHT22;44928;53.074;6.646;2023-05-29T03:41:28;8.50;99.90
59146;DHT22;44928;53.074;6.646;2023-05-29T03:43:54;8.50;99.90
59146;DHT22;44928;53.074;6.646;2023-05-29T03:46:19;8.50;99.90
59146;DHT22;44928;53.074;6.646;2023-05-29T03:48:45;8.50;99.90
59146;DHT22;44928;53.074;6.646;2023-05-29T03:51:11;8.50;99.90
59146;DHT22;44928;53.074;6.646;2023-05-29T03:53:37;8.50;99.90
59146;DHT22;44928;53.074;6.646;2023-05-29T03:56:03;8.50;99.90
59146;DHT22;44928;53.074;6.646;2023-05-29T03:58:28;8.50;99.90
59146;DHT22;44928;53.074;6.646;2023-05-29T04:00:54;8.50;99.90
59146;DHT22;44928;53.074;6.646;2023-05-29T04:03:20;8.60;99.90
59146;DHT22;44928;53.074;6.646;2023-05-29T04:05:47;8.50;99.90
59146;DHT22;44928;53.074;6.646;2023-05-29T04:08:13;8.50;99.90
59146;DHT22;44928;53.074;6.646;2023-05-29T04:10:39;8.60;99.90
59146;DHT22;44928;53.074;6.646;2023-05-29T04:13:05;8.60;99.90
59146;DHT22;44928;53.074;6.646;2023-05-29T04:15:31;8.60;99.90
59146;DHT22;44928;53.074;6.646;2023-05-29T04:17:59;8.70;99.90
59146;DHT22;44928;53.074;6.646;2023-05-29T04:20:25;8.70;99.90
59146;DHT22;44928;53.074;6.646;2023-05-29T04:22:51;8.70;99.90
59146;DHT22;44928;53.074;6.646;2023-05-29T04:25:17;8.70;99.90
59146;DHT22;44928;53.074;6.646;2023-05-29T04:27:46;8.80;99.90
59146;DHT22;44928;53.074;6.646;2023-05-29T04:30:15;8.80;99.90
59146;DHT22;44928;53.074;6.646;2023-05-29T04:32:41;8.80;99.90
59146;DHT22;44928;53.074;6.646;2023-05-29T04:35:08;8.90;99.90
59146;DHT22;44928;53.074;6.646;2023-05-29T04:37:35;8.90;99.90
59146;DHT22;44928;53.074;6.646;2023-05-29T04:40:08;9.00;99.90
59146;DHT22;44928;53.074;6.646;2023-05-29T04:42:37;9.00;99.90
59146;DHT22;44928;53.074;6.646;2023-05-29T04:45:05;9.00;99.90
59146;DHT22;44928;53.074;6.646;2023-05-29T04:47:31;9.00;99.90
59146;DHT22;44928;53.074;6.646;2023-05-29T04:50:02;9.10;99.90
59146;DHT22;44928;53.074;6.646;2023-05-29T04:52:28;9.10;99.90
59146;DHT22;44928;53.074;6.646;2023-05-29T04:54:54;9.10;99.90
59146;DHT22;44928;53.074;6.646;2023-05-29T04:57:22;9.10;99.90
59146;DHT22;44928;53.074;6.646;2023-05-29T04:59:48;9.20;99.90
59146;DHT22;44928;53.074;6.646;2023-05-29T05:02:14;9.20;99.90
59146;DHT22;44928;53.074;6.646;2023-05-29T05:04:40;9.30;99.90
59146;DHT22;44928;53.074;6.646;2023-05-29T05:07:06;9.30;99.90
59146;DHT22;44928;53.074;6.646;2023-05-29T05:09:32;9.40;99.90
59146;DHT22;44928;53.074;6.646;2023-05-29T05:11:57;9.40;99.90
59146;DHT22;44928;53.074;6.646;2023-05-29T05:14:23;9.50;99.90
59146;DHT22;44928;53.074;6.646;2023-05-29T05:16:49;9.60;99.90
59146;DHT22;44928;53.074;6.646;2023-05-29T05:19:15;9.60;99.90
59146;DHT22;44928;53.074;6.646;2023-05-29T05:21:41;9.70;99.90
59146;DHT22;44928;53.074;6.646;2023-05-29T05:24:07;9.70;99.90
59146;DHT22;44928;53.074;6.646;2023-05-29T05:26:33;9.80;99.90
59146;DHT22;44928;53.074;6.646;2023-05-29T05:28:59;9.90;99.90
59146;DHT22;44928;53.074;6.646;2023-05-29T05:31:25;9.90;99.90
59146;DHT22;44928;53.074;6.646;2023-05-29T05:33:51;10.00;99.90
59146;DHT22;44928;53.074;6.646;2023-05-29T05:36:18;10.00;99.90
59146;DHT22;44928;53.074;6.646;2023-05-29T05:38:45;10.10;99.90
59146;DHT22;44928;53.074;6.646;2023-05-29T05:41:14;10.10;99.90
59146;DHT22;44928;53.074;6.646;2023-05-29T05:43:39;10.20;99.90
59146;DHT22;44928;53.074;6.646;2023-05-29T05:46:05;10.30;99.90
59146;DHT22;44928;53.074;6.646;2023-05-29T05:48:31;10.30;99.90
59146;DHT22;44928;53.074;6.646;2023-05-29T05:50:57;10.30;99.90
59146;DHT22;44928;53.074;6.646;2023-05-29T05:53:23;10.40;99.90
59146;DHT22;44928;53.074;6.646;2023-05-29T05:55:48;10.40;99.90
59146;DHT22;44928;53.074;6.646;2023-05-29T05:58:14;10.50;99.90
59146;DHT22;44928;53.074;6.646;2023-05-29T06:00:40;10.50;99.90
59146;DHT22;44928;53.074;6.646;2023-05-29T06:03:08;10.60;99.90
59146;DHT22;44928;53.074;6.646;2023-05-29T06:05:33;10.60;99.90
59146;DHT22;44928;53.074;6.646;2023-05-29T06:08:02;10.70;99.90
59146;DHT22;44928;53.074;6.646;2023-05-29T06:10:33;10.70;99.90
59146;DHT22;44928;53.074;6.646;2023-05-29T06:12:58;10.80;99.90
59146;DHT22;44928;53.074;6.646;2023-05-29T06:15:24;10.90;99.90
59146;DHT22;44928;53.074;6.646;2023-05-29T06:17:50;10.90;99.90
59146;DHT22;44928;53.074;6.646;2023-05-29T06:20:47;10.90;99.90
59146;DHT22;44928;53.074;6.646;2023-05-29T06:23:47;11.00;99.90
59146;DHT22;44928;53.074;6.646;2023-05-29T06:26:13;11.10;99.90
59146;DHT22;44928;53.074;6.646;2023-05-29T06:28:38;11.10;99.90
59146;DHT22;44928;53.074;6.646;2023-05-29T06:31:04;11.20;99.90
59146;DHT22;44928;53.074;6.646;2023-05-29T06:33:30;11.30;99.90
59146;DHT22;44928;53.074;6.646;2023-05-29T06:35:56;11.30;99.90
59146;DHT22;44928;53.074;6.646;2023-05-29T06:38:24;11.40;99.90
59146;DHT22;44928;53.074;6.646;2023-05-29T06:40:50;11.40;99.90
59146;DHT22;44928;53.074;6.646;2023-05-29T06:43:18;11.50;99.90
59146;DHT22;44928;53.074;6.646;2023-05-29T06:45:44;11.60;99.90
59146;DHT22;44928;53.074;6.646;2023-05-29T06:48:10;11.60;99.90
59146;DHT22;44928;53.074;6.646;2023-05-29T06:50:36;11.60;99.90
59146;DHT22;44928;53.074;6.646;2023-05-29T06:53:01;11.70;99.90
59146;DHT22;44928;53.074;6.646;2023-05-29T06:55:32;11.80;99.90
59146;DHT22;44928;53.074;6.646;2023-05-29T06:57:58;11.90;99.90
59146;DHT22;44928;53.074;6.646;2023-05-29T07:00:23;11.90;99.90
59146;DHT22;44928;53.074;6.646;2023-05-29T07:02:50;12.00;99.90
59146;DHT22;44928;53.074;6.646;2023-05-29T07:05:16;12.00;99.90
59146;DHT22;44928;53.074;6.646;2023-05-29T07:07:45;12.10;99.90
59146;DHT22;44928;53.074;6.646;2023-05-29T07:10:11;12.10;99.90
59146;DHT22;44928;53.074;6.646;2023-05-29T07:12:36;12.20;99.90
59146;DHT22;44928;53.074;6.646;2023-05-29T07:15:02;12.30;99.90
59146;DHT22;44928;53.074;6.646;2023-05-29T07:17:28;12.30;99.90
59146;DHT22;44928;53.074;6.646;2023-05-29T07:19:54;12.30;99.90
59146;DHT22;44928;53.074;6.646;2023-05-29T07:22:19;12.30;99.90
59146;DHT22;44928;53.074;6.646;2023-05-29T07:24:45;12.30;99.90
59146;DHT22;44928;53.074;6.646;2023-05-29T07:27:11;12.30;99.90
59146;DHT22;44928;53.074;6.646;2023-05-29T07:29:37;12.30;99.90
59146;DHT22;44928;53.074;6.646;2023-05-29T07:32:03;12.30;99.90
59146;DHT22;44928;53.074;6.646;2023-05-29T07:34:28;12.30;99.90
59146;DHT22;44928;53.074;6.646;2023-05-29T07:37:05;12.40;99.90
59146;DHT22;44928;53.074;6.646;2023-05-29T07:39:31;12.40;99.90
59146;DHT22;44928;53.074;6.646;2023-05-29T07:41:58;12.50;99.90
59146;DHT22;44928;53.074;6.646;2023-05-29T07:44:27;12.50;99.90
59146;DHT22;44928;53.074;6.646;2023-05-29T07:46:53;12.50;99.90
59146;DHT22;44928;53.074;6.646;2023-05-29T07:49:20;12.50;99.90
59146;DHT22;44928;53.074;6.646;2023-05-29T07:51:45;12.60;99.90
59146;DHT22;44928;53.074;6.646;2023-05-29T07:54:14;12.60;99.90
59146;DHT22;44928;53.074;6.646;2023-05-29T07:56:42;12.60;99.90
59146;DHT22;44928;53.074;6.646;2023-05-29T07:59:09;12.60;99.90
59146;DHT22;44928;53.074;6.646;2023-05-29T08:01:37;12.60;99.90
59146;DHT22;44928;53.074;6.646;2023-05-29T08:04:02;12.70;99.90
59146;DHT22;44928;53.074;6.646;2023-05-29T08:06:28;12.80;99.90
59146;DHT22;44928;53.074;6.646;2023-05-29T08:08:54;12.80;99.90
59146;DHT22;44928;53.074;6.646;2023-05-29T08:11:21;12.90;99.90
59146;DHT22;44928;53.074;6.646;2023-05-29T08:13:47;12.90;99.90
59146;DHT22;44928;53.074;6.646;2023-05-29T08:16:13;13.00;99.90
59146;DHT22;44928;53.074;6.646;2023-05-29T08:18:41;13.00;99.90
59146;DHT22;44928;53.074;6.646;2023-05-29T08:21:07;13.00;99.90
59146;DHT22;44928;53.074;6.646;2023-05-29T08:23:32;13.00;99.90
59146;DHT22;44928;53.074;6.646;2023-05-29T08:25:58;13.00;99.90
59146;DHT22;44928;53.074;6.646;2023-05-29T08:28:24;13.10;99.90
59146;DHT22;44928;53.074;6.646;2023-05-29T08:30:52;13.20;99.90
59146;DHT22;44928;53.074;6.646;2023-05-29T08:33:18;13.30;99.90
59146;DHT22;44928;53.074;6.646;2023-05-29T08:35:43;13.30;99.90
59146;DHT22;44928;53.074;6.646;2023-05-29T08:38:09;13.40;99.90
59146;DHT22;44928;53.074;6.646;2023-05-29T08:40:36;13.40;99.90
59146;DHT22;44928;53.074;6.646;2023-05-29T08:45:34;13.50;99.90
59146;DHT22;44928;53.074;6.646;2023-05-29T08:48:02;13.60;99.90
59146;DHT22;44928;53.074;6.646;2023-05-29T08:50:46;13.70;99.90
59146;DHT22;44928;53.074;6.646;2023-05-29T08:53:13;13.80;99.90
59146;DHT22;44928;53.074;6.646;2023-05-29T08:55:39;13.80;99.90
59146;DHT22;44928;53.074;6.646;2023-05-29T08:58:05;13.80;99.90
59146;DHT22;44928;53.074;6.646;2023-05-29T09:00:34;13.80;99.90
59146;DHT22;44928;53.074;6.646;2023-05-29T09:03:00;13.90;99.90
59146;DHT22;44928;53.074;6.646;2023-05-29T09:05:26;13.80;99.90
59146;DHT22;44928;53.074;6.646;2023-05-29T09:07:53;13.80;99.90
59146;DHT22;44928;53.074;6.646;2023-05-29T09:10:19;13.90;99.90
59146;DHT22;44928;53.074;6.646;2023-05-29T09:12:47;13.90;99.90
59146;DHT22;44928;53.074;6.646;2023-05-29T09:15:20;14.00;99.90
59146;DHT22;44928;53.074;6.646;2023-05-29T09:20:17;14.20;99.90
59146;DHT22;44928;53.074;6.646;2023-05-29T09:23:13;14.20;99.90
59146;DHT22;44928;53.074;6.646;2023-05-29T09:25:41;14.30;99.90
59146;DHT22;44928;53.074;6.646;2023-05-29T09:28:10;14.50;99.90
59146;DHT22;44928;53.074;6.646;2023-05-29T09:30:46;14.50;99.90
59146;DHT22;44928;53.074;6.646;2023-05-29T09:33:14;14.60;99.90
59146;DHT22;44928;53.074;6.646;2023-05-29T09:35:47;14.60;99.90
59146;DHT22;44928;53.074;6.646;2023-05-29T09:38:13;14.70;99.90
59146;DHT22;44928;53.074;6.646;2023-05-29T09:40:41;14.80;99.90
59146;DHT22;44928;53.074;6.646;2023-05-29T09:43:14;14.80;99.90
59146;DHT22;44928;53.074;6.646;2023-05-29T09:45:43;14.90;99.90
59146;DHT22;44928;53.074;6.646;2023-05-29T09:48:14;15.00;99.90
59146;DHT22;44928;53.074;6.646;2023-05-29T09:50:40;15.20;99.90
59146;DHT22;44928;53.074;6.646;2023-05-29T09:53:24;15.20;99.90
59146;DHT22;44928;53.074;6.646;2023-05-29T09:55:56;15.30;99.90
59146;DHT22;44928;53.074;6.646;2023-05-29T09:58:23;15.50;99.90
59146;DHT22;44928;53.074;6.646;2023-05-29T10:00:50;15.70;99.90
59146;DHT22;44928;53.074;6.646;2023-05-29T10:03:18;15.80;99.90
59146;DHT22;44928;53.074;6.646;2023-05-29T10:05:54;15.90;99.90
59146;DHT22;44928;53.074;6.646;2023-05-29T10:08:48;15.90;99.90
59146;DHT22;44928;53.074;6.646;2023-05-29T10:11:26;16.10;99.90
59146;DHT22;44928;53.074;6.646;2023-05-29T10:13:53;16.10;99.90
59146;DHT22;44928;53.074;6.646;2023-05-29T10:16:24;16.20;99.90
59146;DHT22;44928;53.074;6.646;2023-05-29T10:19:01;16.20;99.90
59146;DHT22;44928;53.074;6.646;2023-05-29T10:21:40;16.30;99.90
59146;DHT22;44928;53.074;6.646;2023-05-29T10:24:11;16.40;99.90
59146;DHT22;44928;53.074;6.646;2023-05-29T10:26:40;16.50;99.90
59146;DHT22;44928;53.074;6.646;2023-05-29T10:35:47;16.60;99.90
59146;DHT22;44928;53.074;6.646;2023-05-29T10:38:23;16.80;99.90
59146;DHT22;44928;53.074;6.646;2023-05-29T10:40:52;17.00;99.90
59146;DHT22;44928;53.074;6.646;2023-05-29T10:43:35;17.20;99.90
59146;DHT22;44928;53.074;6.646;2023-05-29T10:46:02;17.20;99.90
59146;DHT22;44928;53.074;6.646;2023-05-29T10:48:51;17.20;99.90
59146;DHT22;44928;53.074;6.646;2023-05-29T10:51:46;17.20;99.90
59146;DHT22;44928;53.074;6.646;2023-05-29T10:54:53;17.30;99.90
59146;DHT22;44928;53.074;6.646;2023-05-29T11:00:41;17.40;99.90
59146;DHT22;44928;53.074;6.646;2023-05-29T11:03:08;17.50;99.90
59146;DHT22;44928;53.074;6.646;2023-05-29T11:05:34;17.70;99.80
59146;DHT22;44928;53.074;6.646;2023-05-29T11:08:02;17.80;99.50
59146;DHT22;44928;53.074;6.646;2023-05-29T11:18:44;18.30;97.90
59146;DHT22;44928;53.074;6.646;2023-05-29T11:23:59;18.50;95.70
59146;DHT22;44928;53.074;6.646;2023-05-29T11:26:29;18.30;95.60
59146;DHT22;44928;53.074;6.646;2023-05-29T11:29:04;18.20;96.40
59146;DHT22;44928;53.074;6.646;2023-05-29T11:31:33;18.20;96.10
59146;DHT22;44928;53.074;6.646;2023-05-29T11:34:03;18.20;96.10
59146;DHT22;44928;53.074;6.646;2023-05-29T11:36:33;18.20;96.50
59146;DHT22;44928;53.074;6.646;2023-05-29T11:39:00;18.30;96.30
59146;DHT22;44928;53.074;6.646;2023-05-29T11:41:26;18.20;96.40
59146;DHT22;44928;53.074;6.646;2023-05-29T11:44:00;18.20;96.70
59146;DHT22;44928;53.074;6.646;2023-05-29T11:46:31;18.20;96.40
59146;DHT22;44928;53.074;6.646;2023-05-29T11:48:58;18.10;96.30
59146;DHT22;44928;53.074;6.646;2023-05-29T11:51:25;18.20;97.00
59146;DHT22;44928;53.074;6.646;2023-05-29T11:53:51;18.30;96.60
59146;DHT22;44928;53.074;6.646;2023-05-29T11:56:23;18.50;95.80
59146;DHT22;44928;53.074;6.646;2023-05-29T11:58:50;18.60;94.70
59146;DHT22;44928;53.074;6.646;2023-05-29T12:01:18;18.60;94.70
59146;DHT22;44928;53.074;6.646;2023-05-29T12:03:44;18.70;95.40
59146;DHT22;44928;53.074;6.646;2023-05-29T12:06:10;18.80;95.10
59146;DHT22;44928;53.074;6.646;2023-05-29T12:08:39;18.80;94.40
59146;DHT22;44928;53.074;6.646;2023-05-29T12:11:05;19.00;95.00
59146;DHT22;44928;53.074;6.646;2023-05-29T12:13:31;19.10;94.40
59146;DHT22;44928;53.074;6.646;2023-05-29T12:16:00;19.10;93.10
59146;DHT22;44928;53.074;6.646;2023-05-29T12:18:28;19.00;92.80
59146;DHT22;44928;53.074;6.646;2023-05-29T12:21:03;18.80;93.00
59146;DHT22;44928;53.074;6.646;2023-05-29T12:23:29;18.80;93.60
59146;DHT22;44928;53.074;6.646;2023-05-29T12:25:56;18.90;93.90
59146;DHT22;44928;53.074;6.646;2023-05-29T12:28:23;18.90;93.50
59146;DHT22;44928;53.074;6.646;2023-05-29T12:30:57;19.00;93.40
59146;DHT22;44928;53.074;6.646;2023-05-29T12:33:28;19.10;93.30
59146;DHT22;44928;53.074;6.646;2023-05-29T12:36:05;19.10;93.80
59146;DHT22;44928;53.074;6.646;2023-05-29T12:38:32;19.10;92.80
59146;DHT22;44928;53.074;6.646;2023-05-29T12:40:58;19.00;91.40
59146;DHT22;44928;53.074;6.646;2023-05-29T12:43:24;19.00;90.90
59146;DHT22;44928;53.074;6.646;2023-05-29T12:45:56;18.90;91.30
59146;DHT22;44928;53.074;6.646;2023-05-29T12:51:27;18.70;93.40
59146;DHT22;44928;53.074;6.646;2023-05-29T12:53:53;18.50;92.30
59146;DHT22;44928;53.074;6.646;2023-05-29T12:56:24;18.40;92.40
59146;DHT22;44928;53.074;6.646;2023-05-29T12:58:53;18.30;92.20
59146;DHT22;44928;53.074;6.646;2023-05-29T13:01:19;18.20;93.20
59146;DHT22;44928;53.074;6.646;2023-05-29T13:03:45;18.20;93.20
59146;DHT22;44928;53.074;6.646;2023-05-29T13:06:11;18.20;92.70
59146;DHT22;44928;53.074;6.646;2023-05-29T13:08:37;18.10;91.30
59146;DHT22;44928;53.074;6.646;2023-05-29T13:11:03;18.00;91.70
59146;DHT22;44928;53.074;6.646;2023-05-29T13:13:29;18.00;91.30
59146;DHT22;44928;53.074;6.646;2023-05-29T13:15:54;17.90;90.40
59146;DHT22;44928;53.074;6.646;2023-05-29T13:18:20;17.90;90.30
59146;DHT22;44928;53.074;6.646;2023-05-29T13:20:46;17.90;90.20
59146;DHT22;44928;53.074;6.646;2023-05-29T13:23:12;17.70;90.20
59146;DHT22;44928;53.074;6.646;2023-05-29T13:25:38;17.70;91.20
59146;DHT22;44928;53.074;6.646;2023-05-29T13:28:04;17.70;92.30
59146;DHT22;44928;53.074;6.646;2023-05-29T13:30:29;17.70;92.60
59146;DHT22;44928;53.074;6.646;2023-05-29T13:32:55;17.70;91.60
59146;DHT22;44928;53.074;6.646;2023-05-29T13:35:21;17.60;90.60
59146;DHT22;44928;53.074;6.646;2023-05-29T13:37:46;17.60;91.40
59146;DHT22;44928;53.074;6.646;2023-05-29T13:40:12;17.60;91.80
59146;DHT22;44928;53.074;6.646;2023-05-29T13:42:57;17.60;92.30
59146;DHT22;44928;53.074;6.646;2023-05-29T13:45:26;17.60;92.10
59146;DHT22;44928;53.074;6.646;2023-05-29T13:47:54;17.70;92.30
59146;DHT22;44928;53.074;6.646;2023-05-29T13:50:20;17.70;91.60
59146;DHT22;44928;53.074;6.646;2023-05-29T13:52:49;17.60;92.10
59146;DHT22;44928;53.074;6.646;2023-05-29T13:55:15;17.60;91.50
59146;DHT22;44928;53.074;6.646;2023-05-29T13:57:40;17.60;91.80
59146;DHT22;44928;53.074;6.646;2023-05-29T14:00:09;17.60;91.50
59146;DHT22;44928;53.074;6.646;2023-05-29T14:02:36;17.70;91.70
59146;DHT22;44928;53.074;6.646;2023-05-29T14:05:02;17.80;92.00
59146;DHT22;44928;53.074;6.646;2023-05-29T14:07:28;17.90;91.10
59146;DHT22;44928;53.074;6.646;2023-05-29T14:09:54;17.90;91.10
59146;DHT22;44928;53.074;6.646;2023-05-29T14:12:20;17.90;90.90
59146;DHT22;44928;53.074;6.646;2023-05-29T14:14:45;18.00;90.90
59146;DHT22;44928;53.074;6.646;2023-05-29T14:17:11;17.90;90.40
59146;DHT22;44928;53.074;6.646;2023-05-29T14:19:38;17.90;90.80
59146;DHT22;44928;53.074;6.646;2023-05-29T14:22:04;18.00;91.00
59146;DHT22;44928;53.074;6.646;2023-05-29T14:24:30;18.10;90.30
59146;DHT22;44928;53.074;6.646;2023-05-29T14:26:56;18.20;89.50
59146;DHT22;44928;53.074;6.646;2023-05-29T14:29:21;18.20;89.10
59146;DHT22;44928;53.074;6.646;2023-05-29T14:31:47;18.20;90.10
59146;DHT22;44928;53.074;6.646;2023-05-29T14:34:13;18.20;90.10
59146;DHT22;44928;53.074;6.646;2023-05-29T14:36:39;18.10;85.30
59146;DHT22;44928;53.074;6.646;2023-05-29T14:39:06;18.00;84.00
59146;DHT22;44928;53.074;6.646;2023-05-29T14:41:32;17.90;85.20
59146;DHT22;44928;53.074;6.646;2023-05-29T14:44:00;17.80;87.10
59146;DHT22;44928;53.074;6.646;2023-05-29T14:46:26;17.80;88.10
59146;DHT22;44928;53.074;6.646;2023-05-29T14:48:54;17.70;87.60
59146;DHT22;44928;53.074;6.646;2023-05-29T14:51:20;17.60;88.20
59146;DHT22;44928;53.074;6.646;2023-05-29T14:53:46;17.60;87.70
59146;DHT22;44928;53.074;6.646;2023-05-29T14:56:12;17.60;86.90
59146;DHT22;44928;53.074;6.646;2023-05-29T14:58:38;17.50;86.70
59146;DHT22;44928;53.074;6.646;2023-05-29T15:01:04;17.50;85.70
59146;DHT22;44928;53.074;6.646;2023-05-29T15:03:30;17.40;83.30
59146;DHT22;44928;53.074;6.646;2023-05-29T15:05:55;17.30;83.30
59146;DHT22;44928;53.074;6.646;2023-05-29T15:08:22;17.30;83.70
59146;DHT22;44928;53.074;6.646;2023-05-29T15:10:48;17.30;85.50
59146;DHT22;44928;53.074;6.646;2023-05-29T15:13:14;17.30;86.60
59146;DHT22;44928;53.074;6.646;2023-05-29T15:15:41;17.20;87.30
59146;DHT22;44928;53.074;6.646;2023-05-29T15:18:07;17.20;86.70
59146;DHT22;44928;53.074;6.646;2023-05-29T15:20:32;17.20;85.50
59146;DHT22;44928;53.074;6.646;2023-05-29T15:22:58;17.10;85.90
59146;DHT22;44928;53.074;6.646;2023-05-29T15:25:24;17.10;83.10
59146;DHT22;44928;53.074;6.646;2023-05-29T15:27:50;17.00;83.70
59146;DHT22;44928;53.074;6.646;2023-05-29T15:30:18;17.00;86.20
59146;DHT22;44928;53.074;6.646;2023-05-29T15:32:44;16.90;85.50
59146;DHT22;44928;53.074;6.646;2023-05-29T15:35:13;16.90;84.40
59146;DHT22;44928;53.074;6.646;2023-05-29T15:37:40;16.80;81.70
59146;DHT22;44928;53.074;6.646;2023-05-29T15:40:07;16.80;83.20
59146;DHT22;44928;53.074;6.646;2023-05-29T15:42:36;16.80;83.60
59146;DHT22;44928;53.074;6.646;2023-05-29T15:45:03;16.70;84.40
59146;DHT22;44928;53.074;6.646;2023-05-29T15:47:30;16.70;86.00
59146;DHT22;44928;53.074;6.646;2023-05-29T15:49:56;16.70;86.80
59146;DHT22;44928;53.074;6.646;2023-05-29T15:52:23;16.60;86.80
59146;DHT22;44928;53.074;6.646;2023-05-29T15:54:49;16.60;88.20
59146;DHT22;44928;53.074;6.646;2023-05-29T15:57:15;16.50;90.00
59146;DHT22;44928;53.074;6.646;2023-05-29T15:59:41;16.50;90.60
59146;DHT22;44928;53.074;6.646;2023-05-29T16:02:06;16.50;90.80
59146;DHT22;44928;53.074;6.646;2023-05-29T16:04:36;16.50;91.00
59146;DHT22;44928;53.074;6.646;2023-05-29T16:07:02;16.40;90.80
59146;DHT22;44928;53.074;6.646;2023-05-29T16:09:28;16.40;90.90
59146;DHT22;44928;53.074;6.646;2023-05-29T16:11:54;16.30;91.50
59146;DHT22;44928;53.074;6.646;2023-05-29T16:14:20;16.20;91.80